Time;durP1;ratioP1;P1;durP2;ratioP2;P2;SDS_P1;SDS_P2;PMS_P1;PMS_P2;Temp;Humidity;BMP_temperature;BMP_pressure;BME280_temperature;BME280_humidity;BME280_pressure;Samples;Min_cycle;Max_cycle;Signal;HPM_P1;HPM_P2
2023/08/01 00:00:14;;;;;;;;;2.00;2.00;;;;;;;;4926119;28;45550;-84
2023/08/01 00:02:56;;;;;;;;;2.25;2.00;;;;;;;;4979367;28;46332;-90
2023/08/01 00:05:22;;;;;;;;;1.00;0.25;;;;;;;;4977181;28;45763;-78
2023/08/01 00:07:47;;;;;;;;;1.00;1.00;;;;;;;;4991510;28;45763;-78
2023/08/01 00:10:12;;;;;;;;;1.00;1.00;;;;;;;;4990891;28;45855;-78
2023/08/01 00:12:38;;;;;;;;;2.00;2.00;;;;;;;;4981286;28;46612;-79
2023/08/01 00:15:03;;;;;;;;;0.50;0.50;;;;;;;;4976388;28;45333;-79
2023/08/01 00:17:28;;;;;;;;;2.67;2.00;;;;;;;;4978092;28;45663;-77
2023/08/01 00:19:54;;;;;;;;;1.25;1.00;;;;;;;;4993566;28;45515;-77
2023/08/01 00:22:20;;;;;;;;;2.00;1.00;;;;;;;;4979321;28;47363;-81
2023/08/01 00:24:47;;;;;;;;;1.25;1.25;;;;;;;;4980203;28;45708;-79
2023/08/01 00:27:20;;;;;;;;;1.00;1.00;;;;;;;;5009887;28;45647;-81
2023/08/01 00:30:05;;;;;;;;;1.00;1.00;;;;;;;;4998679;28;45292;-79
2023/08/01 00:32:31;;;;;;;;;2.75;1.50;;;;;;;;4995567;28;45607;-79
2023/08/01 00:34:57;;;;;;;;;3.50;1.25;;;;;;;;4999564;28;45666;-82
2023/08/01 00:37:27;;;;;;;;;2.00;1.00;;;;;;;;4994803;28;45754;-81
2023/08/01 00:39:54;;;;;;;;;2.00;1.00;;;;;;;;4994424;28;45464;-82
2023/08/01 00:42:22;;;;;;;;;1.25;1.25;;;;;;;;4998306;28;46019;-82
2023/08/01 00:44:51;;;;;;;;;3.25;2.00;;;;;;;;4988372;28;45307;-84
2023/08/01 00:47:17;;;;;;;;;1.75;1.25;;;;;;;;4990382;28;45781;-84
2023/08/01 00:49:42;;;;;;;;;3.25;2.00;;;;;;;;5000257;28;45815;-84
2023/08/01 00:52:16;;;;;;;;;2.00;2.00;;;;;;;;4982220;28;46471;-82
2023/08/01 00:55:05;;;;;;;;;1.50;1.00;;;;;;;;5107393;27;45679;-71
2023/08/01 00:57:30;;;;;;;;;1.50;1.50;;;;;;;;5097892;27;45377;-68
2023/08/01 00:59:55;;;;;;;;;3.00;1.50;;;;;;;;5091763;27;45589;-68
2023/08/01 01:02:21;;;;;;;;;2.75;2.75;;;;;;;;5095610;27;45821;-72
2023/08/01 01:04:46;;;;;;;;;3.25;1.00;;;;;;;;5091976;27;45388;-70
2023/08/01 01:07:12;;;;;;;;;1.75;1.75;;;;;;;;5067931;27;45756;-70
2023/08/01 01:09:37;;;;;;;;;2.75;2.00;;;;;;;;5080687;27;45911;-72
2023/08/01 01:12:04;;;;;;;;;0.00;0.00;;;;;;;;5092818;27;45316;-70
2023/08/01 01:14:29;;;;;;;;;0.00;0.00;;;;;;;;5094993;27;45516;-72
2023/08/01 01:16:55;;;;;;;;;0.00;0.00;;;;;;;;5086223;27;45710;-72
2023/08/01 01:19:20;;;;;;;;;1.00;1.00;;;;;;;;5088500;27;45713;-73
2023/08/01 01:21:47;;;;;;;;;1.00;1.00;;;;;;;;5102546;27;45696;-71
2023/08/01 01:24:13;;;;;;;;;0.00;0.00;;;;;;;;5090525;27;45809;-71
2023/08/01 01:26:40;;;;;;;;;0.00;0.00;;;;;;;;5088190;27;45722;-71
2023/08/01 01:29:05;;;;;;;;;0.00;0.00;;;;;;;;5105249;27;45749;-72
2023/08/01 01:31:32;;;;;;;;;0.00;0.00;;;;;;;;5107734;27;45822;-71
2023/08/01 01:33:58;;;;;;;;;0.00;0.00;;;;;;;;5074838;27;48445;-71
2023/08/01 01:36:23;;;;;;;;;0.00;0.00;;;;;;;;5089066;27;45438;-71
2023/08/01 01:38:49;;;;;;;;;0.00;0.00;;;;;;;;5089997;27;45420;-71
2023/08/01 01:41:14;;;;;;;;;0.00;0.00;;;;;;;;5088507;27;45514;-71
2023/08/01 01:43:40;;;;;;;;;0.00;0.00;;;;;;;;5089523;27;45501;-71
2023/08/01 01:46:06;;;;;;;;;1.00;0.00;;;;;;;;5070609;27;45448;-71
2023/08/01 01:48:31;;;;;;;;;0.00;0.00;;;;;;;;5073320;27;45747;-71
2023/08/01 01:50:56;;;;;;;;;0.50;0.50;;;;;;;;5088261;27;45881;-71
2023/08/01 01:53:21;;;;;;;;;0.00;0.00;;;;;;;;5075205;27;48453;-71
2023/08/01 01:55:47;;;;;;;;;0.00;0.00;;;;;;;;5084160;27;45681;-73
2023/08/01 01:58:12;;;;;;;;;1.00;0.00;;;;;;;;5072543;27;45861;-71
2023/08/01 02:00:37;;;;;;;;;1.00;1.00;;;;;;;;5085440;27;45981;-72
2023/08/01 02:03:02;;;;;;;;;1.00;0.00;;;;;;;;5072866;27;45855;-72
2023/08/01 02:05:28;;;;;;;;;0.00;0.00;;;;;;;;5064587;27;45531;-72
2023/08/01 02:07:53;;;;;;;;;0.00;0.00;;;;;;;;5057486;27;45699;-71
2023/08/01 02:10:19;;;;;;;;;0.00;0.00;;;;;;;;5062044;28;46303;-71
2023/08/01 02:12:44;;;;;;;;;0.00;0.00;;;;;;;;5061918;28;48061;-71
2023/08/01 02:15:09;;;;;;;;;0.00;0.00;;;;;;;;5057940;28;45771;-71
2023/08/01 02:17:35;;;;;;;;;0.00;0.00;;;;;;;;5065538;28;45748;-71
2023/08/01 02:20:00;;;;;;;;;0.00;0.00;;;;;;;;5054413;28;45930;-72
2023/08/01 02:22:26;;;;;;;;;0.00;0.00;;;;;;;;5055075;28;46269;-71
2023/08/01 02:24:51;;;;;;;;;0.25;0.25;;;;;;;;5052118;28;45490;-72
2023/08/01 02:27:17;;;;;;;;;1.00;1.00;;;;;;;;5047186;28;45351;-70
2023/08/01 02:29:42;;;;;;;;;0.50;0.00;;;;;;;;5051216;28;46034;-69
2023/08/01 02:32:07;;;;;;;;;0.75;0.75;;;;;;;;5069804;28;45746;-70
2023/08/01 02:34:32;;;;;;;;;0.00;0.00;;;;;;;;5074158;28;45648;-71
2023/08/01 02:36:58;;;;;;;;;1.00;1.00;;;;;;;;5054234;27;45623;-70
2023/08/01 02:39:23;;;;;;;;;1.00;1.00;;;;;;;;5052269;28;45639;-70
2023/08/01 02:41:48;;;;;;;;;2.00;1.00;;;;;;;;5050979;28;47929;-70
2023/08/01 02:44:13;;;;;;;;;1.25;0.00;;;;;;;;5051614;28;45892;-72
2023/08/01 02:46:39;;;;;;;;;0.00;0.00;;;;;;;;5052535;28;45641;-69
2023/08/01 02:49:04;;;;;;;;;0.75;0.75;;;;;;;;5055259;28;45748;-69
2023/08/01 02:51:29;;;;;;;;;0.50;0.50;;;;;;;;5066899;28;46265;-69
2023/08/01 02:53:54;;;;;;;;;1.00;1.00;;;;;;;;5062302;27;45806;-70
2023/08/01 02:56:20;;;;;;;;;2.00;1.00;;;;;;;;5061355;27;45820;-68
2023/08/01 02:58:45;;;;;;;;;1.67;1.67;;;;;;;;5072432;27;45781;-68
2023/08/01 03:01:10;;;;;;;;;0.75;0.75;;;;;;;;5060873;27;47277;-68
2023/08/01 03:03:36;;;;;;;;;0.25;0.25;;;;;;;;5069594;27;45752;-68
2023/08/01 03:06:01;;;;;;;;;2.33;1.33;;;;;;;;5061700;27;45785;-68
2023/08/01 03:08:27;;;;;;;;;2.75;0.75;;;;;;;;5075186;27;45600;-71
2023/08/01 03:10:53;;;;;;;;;1.00;0.00;;;;;;;;5075150;27;45943;-68
2023/08/01 03:13:18;;;;;;;;;0.00;0.00;;;;;;;;5072906;27;45717;-68
2023/08/01 03:15:43;;;;;;;;;1.00;1.00;;;;;;;;5078687;27;45290;-68
2023/08/01 03:18:09;;;;;;;;;1.00;1.00;;;;;;;;5083362;27;45658;-68
2023/08/01 03:20:34;;;;;;;;;0.25;0.25;;;;;;;;5086840;27;46269;-68
2023/08/01 03:22:59;;;;;;;;;1.00;1.00;;;;;;;;5065851;27;45723;-69
2023/08/01 03:25:24;;;;;;;;;1.00;1.00;;;;;;;;5081167;27;45317;-69
2023/08/01 03:27:50;;;;;;;;;1.50;1.00;;;;;;;;5084992;27;45909;-69
2023/08/01 03:30:15;;;;;;;;;1.00;1.00;;;;;;;;5076443;27;45674;-67
2023/08/01 03:32:41;;;;;;;;;0.00;0.00;;;;;;;;5078500;27;45941;-68
2023/08/01 03:35:06;;;;;;;;;1.00;1.00;;;;;;;;5081211;27;45523;-68
2023/08/01 03:37:32;;;;;;;;;0.75;0.75;;;;;;;;5069555;27;46332;-68
2023/08/01 03:39:57;;;;;;;;;2.00;1.25;;;;;;;;5061702;27;47080;-67
2023/08/01 03:42:22;;;;;;;;;2.00;2.00;;;;;;;;5079344;27;45396;-66
2023/08/01 03:44:48;;;;;;;;;1.00;1.00;;;;;;;;5053319;27;45952;-67
2023/08/01 03:47:13;;;;;;;;;0.75;0.75;;;;;;;;5079518;27;45389;-66
2023/08/01 03:49:38;;;;;;;;;1.75;1.00;;;;;;;;5061121;28;48079;-68
2023/08/01 03:52:04;;;;;;;;;2.75;2.00;;;;;;;;5071134;28;45746;-66
2023/08/01 03:54:29;;;;;;;;;1.75;1.25;;;;;;;;5086734;27;45494;-68
2023/08/01 03:56:55;;;;;;;;;1.00;1.00;;;;;;;;5088786;27;45576;-67
2023/08/01 03:59:20;;;;;;;;;2.00;2.00;;;;;;;;5060944;28;47841;-68
2023/08/01 04:01:45;;;;;;;;;3.00;1.67;;;;;;;;5075718;27;45879;-70
2023/08/01 04:04:11;;;;;;;;;1.00;1.00;;;;;;;;5073520;27;45387;-68
2023/08/01 04:06:37;;;;;;;;;1.50;1.50;;;;;;;;5075126;27;45395;-67
2023/08/01 04:09:03;;;;;;;;;2.00;2.00;;;;;;;;5074773;27;46113;-68
2023/08/01 04:11:29;;;;;;;;;1.00;1.00;;;;;;;;5070575;27;45437;-68
2023/08/01 04:13:55;;;;;;;;;2.00;2.00;;;;;;;;5050831;28;45933;-67
2023/08/01 04:16:20;;;;;;;;;2.00;2.00;;;;;;;;5061680;27;45887;-68
2023/08/01 04:18:45;;;;;;;;;1.50;1.50;;;;;;;;5071292;28;46417;-70
2023/08/01 04:21:14;;;;;;;;;1.25;1.25;;;;;;;;5080513;27;45750;-67
2023/08/01 04:23:39;;;;;;;;;1.50;1.50;;;;;;;;5069703;27;45923;-68
2023/08/01 04:26:06;;;;;;;;;1.25;1.25;;;;;;;;5079203;27;45724;-69
2023/08/01 04:28:31;;;;;;;;;2.25;2.25;;;;;;;;5073378;27;45597;-68
2023/08/01 04:30:56;;;;;;;;;4.25;1.00;;;;;;;;5052791;28;45642;-68
2023/08/01 04:33:22;;;;;;;;;3.00;2.00;;;;;;;;5064015;28;45329;-67
2023/08/01 04:35:49;;;;;;;;;4.25;2.00;;;;;;;;5080206;27;45680;-68
2023/08/01 04:38:14;;;;;;;;;2.67;2.00;;;;;;;;5089513;27;46003;-68
2023/08/01 04:40:39;;;;;;;;;3.00;2.00;;;;;;;;5069123;27;45960;-69
2023/08/01 04:43:04;;;;;;;;;3.25;2.50;;;;;;;;5088242;27;45761;-69
2023/08/01 04:45:30;;;;;;;;;1.00;1.00;;;;;;;;5075811;27;45645;-68
2023/08/01 04:47:55;;;;;;;;;2.67;2.67;;;;;;;;5090203;27;46316;-70
2023/08/01 04:50:20;;;;;;;;;2.00;2.00;;;;;;;;5090271;27;45767;-72
2023/08/01 04:52:45;;;;;;;;;2.50;2.50;;;;;;;;5089254;27;45653;-71
2023/08/01 04:55:10;;;;;;;;;4.00;3.67;;;;;;;;5077630;27;45589;-71
2023/08/01 04:57:36;;;;;;;;;1.00;1.00;;;;;;;;5062079;27;47164;-77
2023/08/01 05:00:01;;;;;;;;;2.33;2.00;;;;;;;;5079446;27;45657;-68
2023/08/01 05:02:27;;;;;;;;;2.33;2.33;;;;;;;;5076966;27;45606;-68
2023/08/01 05:04:52;;;;;;;;;2.50;2.00;;;;;;;;5079507;27;45381;-70
2023/08/01 05:07:17;;;;;;;;;2.00;2.00;;;;;;;;5085278;27;45282;-68
2023/08/01 05:09:43;;;;;;;;;2.50;2.00;;;;;;;;5064148;28;45354;-69
2023/08/01 05:12:08;;;;;;;;;3.00;3.00;;;;;;;;5054930;28;45700;-72
2023/08/01 05:14:34;;;;;;;;;2.00;2.00;;;;;;;;5085209;27;45334;-72
2023/08/01 05:16:59;;;;;;;;;2.00;1.00;;;;;;;;5091212;27;45556;-71
2023/08/01 05:19:25;;;;;;;;;3.00;3.00;;;;;;;;5069434;27;45395;-70
2023/08/01 05:21:50;;;;;;;;;3.25;2.00;;;;;;;;5073544;27;45379;-72
2023/08/01 05:24:15;;;;;;;;;2.00;2.00;;;;;;;;5070841;27;45524;-70
2023/08/01 05:26:41;;;;;;;;;3.50;2.00;;;;;;;;5073689;27;46233;-70
2023/08/01 05:29:06;;;;;;;;;2.25;2.25;;;;;;;;5088971;27;45703;-70
2023/08/01 05:31:31;;;;;;;;;3.00;2.00;;;;;;;;5096247;27;45665;-70
2023/08/01 05:33:57;;;;;;;;;1.25;1.25;;;;;;;;5066345;28;45389;-67
2023/08/01 05:36:22;;;;;;;;;1.75;1.75;;;;;;;;5078827;27;45019;-67
2023/08/01 05:38:48;;;;;;;;;3.00;1.75;;;;;;;;5059097;27;45501;-71
2023/08/01 05:41:13;;;;;;;;;3.75;2.50;;;;;;;;5074709;27;45418;-72
2023/08/01 05:43:38;;;;;;;;;3.00;3.00;;;;;;;;5076689;27;46816;-72
2023/08/01 05:46:03;;;;;;;;;3.00;3.00;;;;;;;;5074242;27;45765;-70
2023/08/01 05:48:29;;;;;;;;;3.75;3.75;;;;;;;;5083243;27;45421;-70
2023/08/01 05:50:55;;;;;;;;;3.00;2.00;;;;;;;;5089826;27;45361;-71
2023/08/01 05:53:21;;;;;;;;;1.75;1.75;;;;;;;;5085212;27;45753;-71
2023/08/01 05:55:46;;;;;;;;;2.00;2.00;;;;;;;;5073081;27;45771;-70
2023/08/01 05:58:11;;;;;;;;;4.00;3.00;;;;;;;;5076484;27;45749;-71
2023/08/01 06:00:37;;;;;;;;;1.75;1.75;;;;;;;;5078401;27;45856;-72
2023/08/01 06:03:02;;;;;;;;;2.75;2.75;;;;;;;;5093116;27;45543;-73
2023/08/01 06:05:28;;;;;;;;;2.25;1.00;;;;;;;;5079570;27;46055;-68
2023/08/01 06:07:53;;;;;;;;;3.50;2.75;;;;;;;;5090876;27;45604;-67
2023/08/01 06:10:18;;;;;;;;;3.00;3.00;;;;;;;;5082131;27;45628;-69
2023/08/01 06:12:43;;;;;;;;;2.00;0.50;;;;;;;;5069602;27;45791;-69
2023/08/01 06:15:09;;;;;;;;;4.50;3.25;;;;;;;;5082865;27;46337;-69
2023/08/01 06:17:34;;;;;;;;;4.25;2.00;;;;;;;;5088034;27;45873;-68
2023/08/01 06:19:59;;;;;;;;;1.75;1.25;;;;;;;;5069462;27;45926;-68
2023/08/01 06:22:25;;;;;;;;;3.25;2.00;;;;;;;;5073040;27;45598;-68
2023/08/01 06:24:50;;;;;;;;;3.00;2.00;;;;;;;;5074347;27;46067;-67
2023/08/01 06:27:15;;;;;;;;;1.00;1.00;;;;;;;;5081042;27;45424;-68
2023/08/01 06:29:41;;;;;;;;;2.25;1.50;;;;;;;;5077942;27;45419;-69
2023/08/01 06:32:06;;;;;;;;;2.75;2.75;;;;;;;;5084498;27;45412;-68
2023/08/01 06:34:32;;;;;;;;;3.75;2.75;;;;;;;;5076078;27;45417;-67
2023/08/01 06:36:57;;;;;;;;;3.75;2.25;;;;;;;;5092030;27;45363;-67
2023/08/01 06:39:22;;;;;;;;;3.00;3.00;;;;;;;;5081792;27;45864;-67
2023/08/01 06:41:47;;;;;;;;;2.75;2.00;;;;;;;;5064610;27;46018;-69
2023/08/01 06:44:13;;;;;;;;;2.50;2.50;;;;;;;;5076273;27;45771;-67
2023/08/01 06:46:38;;;;;;;;;3.00;1.00;;;;;;;;5074052;27;45653;-69
2023/08/01 06:49:03;;;;;;;;;1.00;1.00;;;;;;;;5082330;27;45846;-69
2023/08/01 06:51:28;;;;;;;;;4.25;1.50;;;;;;;;5076217;27;45778;-68
2023/08/01 06:53:54;;;;;;;;;3.00;3.00;;;;;;;;5076125;27;46586;-69
2023/08/01 06:56:19;;;;;;;;;5.75;3.75;;;;;;;;5084727;27;45483;-70
2023/08/01 06:58:44;;;;;;;;;2.50;2.00;;;;;;;;5083811;27;45941;-69
2023/08/01 07:01:10;;;;;;;;;3.00;3.00;;;;;;;;5085317;27;45432;-70
2023/08/01 07:03:35;;;;;;;;;3.00;3.00;;;;;;;;5082687;27;45554;-71
2023/08/01 07:06:00;;;;;;;;;3.50;2.00;;;;;;;;5076946;27;45565;-69
2023/08/01 07:08:25;;;;;;;;;2.75;2.75;;;;;;;;5076050;27;45552;-70
2023/08/01 07:10:51;;;;;;;;;2.75;2.50;;;;;;;;5070941;27;45365;-69
2023/08/01 07:13:16;;;;;;;;;3.00;2.00;;;;;;;;5069065;27;46583;-71
2023/08/01 07:15:42;;;;;;;;;4.25;2.50;;;;;;;;5074558;27;45476;-69
2023/08/01 07:18:07;;;;;;;;;3.75;2.75;;;;;;;;5055335;28;45553;-69
2023/08/01 07:20:32;;;;;;;;;3.75;3.00;;;;;;;;5053750;27;45929;-70
2023/08/01 07:22:58;;;;;;;;;4.00;3.00;;;;;;;;5070493;27;45830;-69
2023/08/01 07:25:23;;;;;;;;;6.00;3.00;;;;;;;;5073329;27;45778;-70
2023/08/01 07:27:48;;;;;;;;;3.00;3.00;;;;;;;;5072599;27;45757;-71
2023/08/01 07:30:14;;;;;;;;;5.00;3.00;;;;;;;;5070662;27;45401;-70
2023/08/01 07:32:39;;;;;;;;;4.00;2.00;;;;;;;;5066664;27;46222;-72
2023/08/01 07:35:05;;;;;;;;;5.25;3.25;;;;;;;;5070235;27;45289;-71
2023/08/01 07:37:31;;;;;;;;;3.75;2.50;;;;;;;;5057332;27;45799;-69
2023/08/01 07:39:57;;;;;;;;;7.00;4.25;;;;;;;;5053715;28;46680;-68
2023/08/01 07:42:22;;;;;;;;;5.00;3.25;;;;;;;;5056456;27;46667;-68
2023/08/01 07:44:47;;;;;;;;;2.75;2.00;;;;;;;;5072354;27;45911;-67
2023/08/01 07:47:12;;;;;;;;;2.50;2.00;;;;;;;;5069704;27;45529;-68
2023/08/01 07:49:38;;;;;;;;;8.00;4.25;;;;;;;;5044201;28;47775;-68
2023/08/01 07:52:03;;;;;;;;;6.00;3.00;;;;;;;;5075452;27;46065;-67
2023/08/01 07:54:28;;;;;;;;;4.50;3.00;;;;;;;;5052398;27;45710;-69
2023/08/01 07:56:54;;;;;;;;;3.25;3.00;;;;;;;;5055805;27;45809;-68
2023/08/01 07:59:19;;;;;;;;;3.25;2.25;;;;;;;;5076680;27;45879;-71
2023/08/01 08:01:44;;;;;;;;;3.25;2.00;;;;;;;;5040155;27;46851;-68
2023/08/01 08:04:09;;;;;;;;;3.00;3.00;;;;;;;;5068366;27;45470;-69
2023/08/01 08:06:35;;;;;;;;;3.50;3.50;;;;;;;;5077621;27;45416;-69
2023/08/01 08:09:00;;;;;;;;;3.75;2.00;;;;;;;;5090342;27;45685;-69
2023/08/01 08:11:26;;;;;;;;;2.25;2.25;;;;;;;;5082419;27;45847;-69
2023/08/01 08:13:51;;;;;;;;;3.25;3.25;;;;;;;;5067749;27;45494;-69
2023/08/01 08:16:16;;;;;;;;;2.00;2.00;;;;;;;;5072190;27;45357;-68
2023/08/01 08:18:41;;;;;;;;;2.75;2.75;;;;;;;;5073649;27;45708;-68
2023/08/01 08:21:07;;;;;;;;;1.50;1.50;;;;;;;;5053425;28;47660;-68
2023/08/01 08:23:32;;;;;;;;;2.00;2.00;;;;;;;;5087230;27;45768;-68
2023/08/01 08:25:57;;;;;;;;;3.75;2.25;;;;;;;;5068994;27;45606;-69
2023/08/01 08:28:29;;;;;;;;;5.50;3.00;;;;;;;;5071097;27;45460;-69
2023/08/01 08:30:55;;;;;;;;;3.00;1.75;;;;;;;;5072102;27;45518;-71
2023/08/01 08:33:21;;;;;;;;;4.25;3.25;;;;;;;;5086383;27;45326;-69
2023/08/01 08:35:46;;;;;;;;;2.75;2.75;;;;;;;;5077384;27;45683;-70
2023/08/01 08:38:11;;;;;;;;;2.00;2.00;;;;;;;;5061160;28;45397;-69
2023/08/01 08:40:40;;;;;;;;;3.25;2.75;;;;;;;;5070690;27;46765;-68
2023/08/01 08:43:05;;;;;;;;;2.25;2.25;;;;;;;;5076906;27;45523;-66
2023/08/01 08:45:33;;;;;;;;;4.75;3.25;;;;;;;;5085374;27;45620;-66
2023/08/01 08:48:00;;;;;;;;;3.75;2.00;;;;;;;;5055306;27;46552;-66
2023/08/01 08:50:29;;;;;;;;;4.25;3.25;;;;;;;;5088478;27;45901;-64
2023/08/01 08:52:54;;;;;;;;;2.25;2.25;;;;;;;;5067418;27;45891;-63
2023/08/01 08:55:22;;;;;;;;;5.25;3.00;;;;;;;;5062572;27;45763;-66
2023/08/01 08:57:50;;;;;;;;;1.50;1.50;;;;;;;;5083892;27;45773;-64
2023/08/01 09:00:16;;;;;;;;;3.00;2.00;;;;;;;;5076181;27;46477;-63
2023/08/01 09:02:41;;;;;;;;;2.50;2.25;;;;;;;;5067769;27;45708;-63
2023/08/01 09:05:07;;;;;;;;;5.75;4.00;;;;;;;;5080537;27;45778;-65
2023/08/01 09:07:33;;;;;;;;;2.00;2.00;;;;;;;;5083772;27;45318;-65
2023/08/01 09:09:58;;;;;;;;;1.25;1.25;;;;;;;;5083591;27;46276;-64
2023/08/01 09:12:24;;;;;;;;;1.50;1.50;;;;;;;;5072148;27;45820;-65
2023/08/01 09:14:51;;;;;;;;;2.25;2.00;;;;;;;;5071850;27;45647;-64
2023/08/01 09:17:18;;;;;;;;;3.75;3.00;;;;;;;;5089914;27;45689;-65
2023/08/01 09:19:43;;;;;;;;;2.25;2.25;;;;;;;;5090278;27;45856;-68
2023/08/01 09:22:13;;;;;;;;;4.00;3.00;;;;;;;;5084425;27;45868;-68
2023/08/01 09:24:38;;;;;;;;;1.50;0.50;;;;;;;;5085851;27;46367;-68
2023/08/01 09:27:08;;;;;;;;;3.50;2.00;;;;;;;;5069350;27;45446;-69
2023/08/01 09:29:33;;;;;;;;;3.50;2.75;;;;;;;;5080743;27;45567;-70
2023/08/01 09:31:58;;;;;;;;;3.00;2.00;;;;;;;;5091580;27;45396;-69
2023/08/01 09:34:25;;;;;;;;;2.00;2.00;;;;;;;;5084894;27;45942;-65
2023/08/01 09:36:51;;;;;;;;;2.50;2.00;;;;;;;;5064017;27;46301;-66
2023/08/01 09:39:17;;;;;;;;;2.75;2.75;;;;;;;;5081941;27;45754;-66
2023/08/01 09:41:43;;;;;;;;;2.00;1.00;;;;;;;;5062275;28;45536;-67
2023/08/01 09:44:12;;;;;;;;;3.25;3.25;;;;;;;;5064992;27;45765;-65
2023/08/01 09:46:37;;;;;;;;;4.00;4.00;;;;;;;;5079777;27;46011;-66
2023/08/01 09:49:21;;;;;;;;;3.50;2.25;;;;;;;;5080732;27;46529;-65
2023/08/01 09:51:49;;;;;;;;;2.60;1.40;;;;;;;;5086020;27;45760;-65
2023/08/01 09:54:16;;;;;;;;;3.75;2.00;;;;;;;;5078535;27;45502;-69
2023/08/01 09:56:44;;;;;;;;;2.00;1.00;;;;;;;;5085857;27;45585;-69
2023/08/01 09:59:10;;;;;;;;;2.50;1.50;;;;;;;;5077317;27;46296;-68
2023/08/01 10:01:35;;;;;;;;;2.80;2.20;;;;;;;;5080361;27;45790;-68
2023/08/01 10:04:01;;;;;;;;;2.75;2.75;;;;;;;;5077300;27;45760;-67
2023/08/01 10:06:28;;;;;;;;;3.75;2.00;;;;;;;;5083942;27;45744;-67
2023/08/01 10:08:54;;;;;;;;;2.75;1.75;;;;;;;;5068973;27;46232;-67
2023/08/01 10:11:20;;;;;;;;;2.00;1.75;;;;;;;;5060114;27;45707;-68
2023/08/01 10:13:45;;;;;;;;;3.50;2.00;;;;;;;;5074846;27;45811;-64
2023/08/01 10:16:11;;;;;;;;;1.50;1.50;;;;;;;;5071695;27;45739;-65
2023/08/01 10:18:38;;;;;;;;;4.25;4.25;;;;;;;;5066249;27;47222;-64
2023/08/01 10:21:04;;;;;;;;;7.25;5.25;;;;;;;;5086805;27;45522;-67
2023/08/01 10:23:30;;;;;;;;;19.00;15.00;;;;;;;;5083717;27;45467;-69
2023/08/01 10:25:55;;;;;;;;;22.67;18.67;;;;;;;;5079396;27;45555;-67
2023/08/01 10:28:30;;;;;;;;;48.67;39.00;;;;;;;;5078000;27;45507;-69
2023/08/01 10:31:05;;;;;;;;;19.33;19.33;;;;;;;;5072680;27;46222;-70
2023/08/01 10:33:34;;;;;;;;;15.25;8.75;;;;;;;;5056304;28;45815;-68
2023/08/01 10:35:59;;;;;;;;;6.50;4.25;;;;;;;;5082048;27;45498;-69
2023/08/01 10:38:24;;;;;;;;;7.75;7.25;;;;;;;;5078549;27;45892;-66
2023/08/01 10:40:51;;;;;;;;;3.75;3.75;;;;;;;;5074990;27;45678;-66
2023/08/01 10:43:24;;;;;;;;;7.00;4.75;;;;;;;;5074988;27;45924;-66
2023/08/01 10:46:00;;;;;;;;;5.25;5.00;;;;;;;;5073539;27;45524;-66
2023/08/01 10:48:25;;;;;;;;;4.50;2.25;;;;;;;;5082664;27;45883;-64
2023/08/01 10:50:56;;;;;;;;;8.75;7.00;;;;;;;;5074410;27;45480;-66
2023/08/01 10:53:21;;;;;;;;;5.00;4.50;;;;;;;;5071318;27;45749;-65
2023/08/01 10:55:48;;;;;;;;;4.00;4.00;;;;;;;;5072096;27;45732;-65
2023/08/01 10:58:13;;;;;;;;;3.25;2.00;;;;;;;;5082424;27;45843;-65
2023/08/01 11:00:39;;;;;;;;;4.00;3.00;;;;;;;;5076961;27;45749;-64
2023/08/01 11:03:04;;;;;;;;;4.00;2.00;;;;;;;;5055736;27;45689;-69
2023/08/01 11:05:29;;;;;;;;;5.00;3.25;;;;;;;;5059106;27;45430;-69
2023/08/01 11:08:02;;;;;;;;;3.50;2.00;;;;;;;;5085678;27;46072;-65
2023/08/01 11:10:28;;;;;;;;;2.75;2.00;;;;;;;;5081044;27;45844;-65
2023/08/01 11:12:54;;;;;;;;;4.50;4.00;;;;;;;;5075796;27;45914;-66
2023/08/01 11:15:19;;;;;;;;;4.75;4.00;;;;;;;;5087487;27;45578;-64
2023/08/01 11:17:49;;;;;;;;;3.50;3.00;;;;;;;;5084198;27;45553;-65
2023/08/01 11:20:15;;;;;;;;;5.00;3.00;;;;;;;;5060340;28;45470;-66
2023/08/01 11:22:57;;;;;;;;;2.00;2.00;;;;;;;;5072147;27;45775;-65
2023/08/01 11:25:35;;;;;;;;;1.75;1.75;;;;;;;;5081758;27;45414;-65
2023/08/01 11:28:05;;;;;;;;;1.75;1.75;;;;;;;;5076306;27;45728;-64
2023/08/01 11:30:31;;;;;;;;;1.00;1.00;;;;;;;;5079197;27;45543;-64
2023/08/01 11:32:57;;;;;;;;;1.50;1.50;;;;;;;;5089614;27;45306;-66
2023/08/01 11:35:22;;;;;;;;;3.00;1.00;;;;;;;;5078029;27;45289;-65
2023/08/01 11:37:49;;;;;;;;;2.00;2.00;;;;;;;;5082831;27;45846;-66
2023/08/01 11:40:15;;;;;;;;;2.00;2.00;;;;;;;;5088045;27;45387;-66
2023/08/01 11:42:40;;;;;;;;;4.00;2.50;;;;;;;;5073678;27;45430;-65
2023/08/01 11:45:12;;;;;;;;;2.00;2.00;;;;;;;;5080960;27;45734;-66
2023/08/01 11:47:37;;;;;;;;;2.00;2.00;;;;;;;;5061112;27;48316;-65
2023/08/01 11:50:03;;;;;;;;;2.75;2.75;;;;;;;;5063942;27;45386;-66
2023/08/01 11:52:29;;;;;;;;;2.00;2.00;;;;;;;;5071739;27;45682;-67
2023/08/01 11:54:54;;;;;;;;;3.25;3.00;;;;;;;;5057155;27;45704;-67
2023/08/01 11:57:21;;;;;;;;;1.00;1.00;;;;;;;;5069671;27;45624;-67
2023/08/01 11:59:47;;;;;;;;;2.00;2.00;;;;;;;;5073152;27;45800;-65
2023/08/01 12:02:20;;;;;;;;;1.50;1.50;;;;;;;;5074778;27;45397;-66
2023/08/01 12:04:46;;;;;;;;;3.00;2.00;;;;;;;;5070331;27;45729;-66
2023/08/01 12:07:15;;;;;;;;;2.00;2.00;;;;;;;;5059630;27;48186;-67
2023/08/01 12:09:40;;;;;;;;;1.50;1.00;;;;;;;;5084153;27;45767;-66
2023/08/01 12:12:06;;;;;;;;;2.00;2.00;;;;;;;;5083640;27;45399;-67
2023/08/01 12:14:31;;;;;;;;;3.75;1.50;;;;;;;;5084579;27;46391;-66
2023/08/01 12:16:57;;;;;;;;;1.75;1.75;;;;;;;;5090775;27;45696;-64
2023/08/01 12:19:22;;;;;;;;;1.00;1.00;;;;;;;;5069863;28;45329;-66
2023/08/01 12:21:48;;;;;;;;;2.75;2.00;;;;;;;;5084549;27;45737;-66
2023/08/01 12:24:13;;;;;;;;;3.00;3.00;;;;;;;;5083543;27;45513;-66
2023/08/01 12:26:39;;;;;;;;;1.00;1.00;;;;;;;;5093377;27;45357;-67
2023/08/01 12:29:05;;;;;;;;;3.00;3.00;;;;;;;;5088571;27;45408;-66
2023/08/01 12:31:30;;;;;;;;;2.00;2.00;;;;;;;;5088961;27;45387;-67
2023/08/01 12:33:56;;;;;;;;;2.00;2.00;;;;;;;;5075711;27;45635;-66
2023/08/01 12:36:21;;;;;;;;;3.00;1.00;;;;;;;;5079355;27;45427;-65
2023/08/01 12:38:46;;;;;;;;;5.25;3.00;;;;;;;;5084685;27;45916;-66
2023/08/01 12:41:12;;;;;;;;;2.00;1.50;;;;;;;;5072163;27;45817;-65
2023/08/01 12:43:37;;;;;;;;;2.00;2.00;;;;;;;;5087676;27;45700;-66
2023/08/01 12:46:03;;;;;;;;;2.00;2.00;;;;;;;;5090217;27;45760;-66
2023/08/01 12:48:28;;;;;;;;;2.25;1.50;;;;;;;;5086974;27;45495;-66
2023/08/01 12:50:54;;;;;;;;;2.50;2.00;;;;;;;;5083904;27;45704;-67
2023/08/01 12:53:20;;;;;;;;;1.75;1.75;;;;;;;;5056231;27;45867;-70
2023/08/01 12:55:46;;;;;;;;;2.00;2.00;;;;;;;;5087219;27;46917;-66
2023/08/01 12:58:11;;;;;;;;;1.00;1.00;;;;;;;;5065880;27;45672;-65
2023/08/01 13:00:36;;;;;;;;;1.25;1.25;;;;;;;;5054537;27;45483;-67
2023/08/01 13:03:02;;;;;;;;;1.00;1.00;;;;;;;;5086753;27;45496;-66
2023/08/01 13:05:27;;;;;;;;;1.25;1.25;;;;;;;;5088525;27;46323;-67
2023/08/01 13:07:52;;;;;;;;;3.00;2.25;;;;;;;;5058983;27;45434;-66
2023/08/01 13:10:18;;;;;;;;;1.75;1.75;;;;;;;;5073122;27;45498;-65
2023/08/01 13:12:43;;;;;;;;;1.25;1.25;;;;;;;;5073795;27;45689;-65
2023/08/01 13:15:08;;;;;;;;;1.25;1.25;;;;;;;;5069726;28;45889;-66
2023/08/01 13:17:34;;;;;;;;;1.25;1.25;;;;;;;;5060157;27;45706;-66
2023/08/01 13:19:59;;;;;;;;;5.75;2.00;;;;;;;;5071823;27;45751;-66
2023/08/01 13:22:24;;;;;;;;;3.50;2.00;;;;;;;;5070901;27;45907;-65
2023/08/01 13:24:50;;;;;;;;;3.00;2.75;;;;;;;;5073610;27;45608;-66
2023/08/01 13:27:15;;;;;;;;;2.00;2.00;;;;;;;;5078154;27;45541;-66
2023/08/01 13:29:40;;;;;;;;;1.25;1.25;;;;;;;;5064299;27;45402;-67
2023/08/01 13:32:06;;;;;;;;;1.00;1.00;;;;;;;;5059878;28;45949;-65
2023/08/01 13:34:31;;;;;;;;;4.50;2.00;;;;;;;;5063855;27;46951;-65
2023/08/01 13:36:57;;;;;;;;;1.25;0.25;;;;;;;;5081502;27;45425;-66
2023/08/01 13:39:22;;;;;;;;;1.00;1.00;;;;;;;;5077459;27;45596;-66
2023/08/01 13:41:48;;;;;;;;;2.00;2.00;;;;;;;;5076681;27;45437;-66
2023/08/01 13:44:14;;;;;;;;;2.75;2.75;;;;;;;;5061044;28;48190;-66
2023/08/01 13:46:39;;;;;;;;;3.00;2.00;;;;;;;;5062387;27;45641;-66
2023/08/01 13:49:04;;;;;;;;;1.75;0.75;;;;;;;;5062481;27;45662;-66
2023/08/01 13:51:33;;;;;;;;;2.00;2.00;;;;;;;;5063926;27;46119;-66
2023/08/01 13:53:59;;;;;;;;;2.25;1.25;;;;;;;;5069400;27;45737;-66
2023/08/01 13:56:25;;;;;;;;;2.75;1.75;;;;;;;;5067553;27;47540;-66
2023/08/01 13:58:50;;;;;;;;;4.25;2.00;;;;;;;;5069959;28;45766;-66
2023/08/01 14:01:15;;;;;;;;;3.00;3.00;;;;;;;;5074076;27;46486;-66
2023/08/01 14:03:41;;;;;;;;;1.75;1.75;;;;;;;;5081579;27;46295;-68
2023/08/01 14:06:07;;;;;;;;;1.50;1.00;;;;;;;;5050452;28;45402;-66
2023/08/01 14:08:32;;;;;;;;;2.00;2.00;;;;;;;;5068887;27;45697;-69
2023/08/01 14:10:58;;;;;;;;;1.00;1.00;;;;;;;;5085958;27;45759;-68
2023/08/01 14:13:23;;;;;;;;;1.75;1.00;;;;;;;;5054513;27;47026;-69
2023/08/01 14:15:48;;;;;;;;;1.75;1.75;;;;;;;;5064819;27;46019;-67
2023/08/01 14:18:14;;;;;;;;;2.00;1.00;;;;;;;;5071651;27;45915;-67
2023/08/01 14:20:39;;;;;;;;;0.00;0.00;;;;;;;;5068289;27;45480;-66
2023/08/01 14:23:04;;;;;;;;;2.50;1.00;;;;;;;;5068414;27;46845;-67
2023/08/01 14:25:30;;;;;;;;;1.00;1.00;;;;;;;;5067177;27;45824;-69
2023/08/01 14:27:55;;;;;;;;;3.00;3.00;;;;;;;;5072952;27;45508;-68
2023/08/01 14:30:20;;;;;;;;;3.00;3.00;;;;;;;;5066945;27;45874;-70
2023/08/01 14:32:45;;;;;;;;;2.00;1.00;;;;;;;;5080227;27;47034;-68
2023/08/01 14:35:11;;;;;;;;;2.00;1.00;;;;;;;;5057955;27;45877;-70